sensor_id;sensor_type;location;lat;lon;timestamp;temperature;humidity
4673;DHT22;61885;53.560;9.940;2023-05-07T00:00:00;9.20;99.90
4673;DHT22;61885;53.560;9.940;2023-05-07T00:02:33;9.30;99.90
4673;DHT22;61885;53.560;9.940;2023-05-07T00:05:07;9.20;99.90
4673;DHT22;61885;53.560;9.940;2023-05-07T00:07:39;9.20;99.90
4673;DHT22;61885;53.560;9.940;2023-05-07T00:10:11;9.10;99.90
4673;DHT22;61885;53.560;9.940;2023-05-07T00:12:43;9.10;99.90
4673;DHT22;61885;53.560;9.940;2023-05-07T00:15:14;9.10;99.90
4673;DHT22;61885;53.560;9.940;2023-05-07T00:17:43;9.10;99.90
4673;DHT22;61885;53.560;9.940;2023-05-07T00:20:14;9.10;99.90
4673;DHT22;61885;53.560;9.940;2023-05-07T00:22:44;9.10;99.90
4673;DHT22;61885;53.560;9.940;2023-05-07T00:25:17;9.20;99.90
4673;DHT22;61885;53.560;9.940;2023-05-07T00:27:46;9.20;99.90
4673;DHT22;61885;53.560;9.940;2023-05-07T00:30:18;9.10;99.90
4673;DHT22;61885;53.560;9.940;2023-05-07T00:32:51;9.10;99.90
4673;DHT22;61885;53.560;9.940;2023-05-07T00:35:21;9.10;99.90
4673;DHT22;61885;53.560;9.940;2023-05-07T00:37:53;9.10;99.90
4673;DHT22;61885;53.560;9.940;2023-05-07T00:40:27;9.10;99.90
4673;DHT22;61885;53.560;9.940;2023-05-07T00:42:57;9.10;99.90
4673;DHT22;61885;53.560;9.940;2023-05-07T00:45:27;9.20;99.90
4673;DHT22;61885;53.560;9.940;2023-05-07T00:47:59;9.20;99.90
4673;DHT22;61885;53.560;9.940;2023-05-07T00:50:31;9.20;99.90
4673;DHT22;61885;53.560;9.940;2023-05-07T00:53:01;9.20;99.90
4673;DHT22;61885;53.560;9.940;2023-05-07T00:55:35;9.20;99.90
4673;DHT22;61885;53.560;9.940;2023-05-07T00:58:06;9.10;99.90
4673;DHT22;61885;53.560;9.940;2023-05-07T01:00:36;9.10;99.90
4673;DHT22;61885;53.560;9.940;2023-05-07T01:03:06;9.00;99.90
4673;DHT22;61885;53.560;9.940;2023-05-07T01:05:36;9.10;99.90
4673;DHT22;61885;53.560;9.940;2023-05-07T01:08:06;9.00;99.90
4673;DHT22;61885;53.560;9.940;2023-05-07T01:10:38;9.10;99.90
4673;DHT22;61885;53.560;9.940;2023-05-07T01:13:09;9.10;99.90
4673;DHT22;61885;53.560;9.940;2023-05-07T01:15:39;9.10;99.90
4673;DHT22;61885;53.560;9.940;2023-05-07T01:18:09;9.10;99.90
4673;DHT22;61885;53.560;9.940;2023-05-07T01:20:39;9.10;99.90
4673;DHT22;61885;53.560;9.940;2023-05-07T01:23:12;9.10;99.90
4673;DHT22;61885;53.560;9.940;2023-05-07T01:25:51;9.10;99.90
4673;DHT22;61885;53.560;9.940;2023-05-07T01:28:20;9.10;99.90
4673;DHT22;61885;53.560;9.940;2023-05-07T01:30:53;9.10;99.90
4673;DHT22;61885;53.560;9.940;2023-05-07T01:33:23;9.10;99.90
4673;DHT22;61885;53.560;9.940;2023-05-07T01:35:54;9.10;99.90
4673;DHT22;61885;53.560;9.940;2023-05-07T01:38:28;9.10;99.90
4673;DHT22;61885;53.560;9.940;2023-05-07T01:40:59;9.20;99.90
4673;DHT22;61885;53.560;9.940;2023-05-07T01:43:29;9.20;99.90
4673;DHT22;61885;53.560;9.940;2023-05-07T01:46:01;9.10;99.90
4673;DHT22;61885;53.560;9.940;2023-05-07T01:48:32;9.10;99.90
4673;DHT22;61885;53.560;9.940;2023-05-07T01:51:02;9.10;99.90
4673;DHT22;61885;53.560;9.940;2023-05-07T01:53:38;9.10;99.90
4673;DHT22;61885;53.560;9.940;2023-05-07T01:56:09;9.10;99.90
4673;DHT22;61885;53.560;9.940;2023-05-07T01:58:39;9.10;99.90
4673;DHT22;61885;53.560;9.940;2023-05-07T02:01:09;9.10;99.90
4673;DHT22;61885;53.560;9.940;2023-05-07T02:03:40;9.10;99.90
4673;DHT22;61885;53.560;9.940;2023-05-07T02:06:10;9.10;99.90
4673;DHT22;61885;53.560;9.940;2023-05-07T02:08:42;9.10;99.90
4673;DHT22;61885;53.560;9.940;2023-05-07T02:11:12;9.20;99.90
4673;DHT22;61885;53.560;9.940;2023-05-07T02:13:45;9.20;99.90
4673;DHT22;61885;53.560;9.940;2023-05-07T02:16:15;9.20;99.90
4673;DHT22;61885;53.560;9.940;2023-05-07T02:18:48;9.20;99.90
4673;DHT22;61885;53.560;9.940;2023-05-07T02:21:20;9.00;99.90
4673;DHT22;61885;53.560;9.940;2023-05-07T02:23:54;9.20;99.90
4673;DHT22;61885;53.560;9.940;2023-05-07T02:26:23;9.20;99.90
4673;DHT22;61885;53.560;9.940;2023-05-07T02:28:55;9.20;99.90
4673;DHT22;61885;53.560;9.940;2023-05-07T02:31:26;9.10;99.90
4673;DHT22;61885;53.560;9.940;2023-05-07T02:33:55;9.20;99.90
4673;DHT22;61885;53.560;9.940;2023-05-07T02:36:25;9.10;99.90
4673;DHT22;61885;53.560;9.940;2023-05-07T02:38:57;9.20;99.90
4673;DHT22;61885;53.560;9.940;2023-05-07T02:41:27;9.10;99.90
4673;DHT22;61885;53.560;9.940;2023-05-07T02:43:57;9.10;99.90
4673;DHT22;61885;53.560;9.940;2023-05-07T02:46:27;9.10;99.90
4673;DHT22;61885;53.560;9.940;2023-05-07T02:48:56;9.10;99.90
4673;DHT22;61885;53.560;9.940;2023-05-07T02:51:29;9.10;99.90
4673;DHT22;61885;53.560;9.940;2023-05-07T02:54:02;9.10;99.90
4673;DHT22;61885;53.560;9.940;2023-05-07T02:56:32;9.10;99.90
4673;DHT22;61885;53.560;9.940;2023-05-07T02:59:01;9.00;99.90
4673;DHT22;61885;53.560;9.940;2023-05-07T03:01:31;9.10;99.90
4673;DHT22;61885;53.560;9.940;2023-05-07T03:04:00;9.10;99.90
4673;DHT22;61885;53.560;9.940;2023-05-07T03:06:31;9.10;99.90
4673;DHT22;61885;53.560;9.940;2023-05-07T03:09:03;9.10;99.90
4673;DHT22;61885;53.560;9.940;2023-05-07T03:11:33;9.10;99.90
4673;DHT22;61885;53.560;9.940;2023-05-07T03:14:02;9.20;99.90
4673;DHT22;61885;53.560;9.940;2023-05-07T03:16:32;9.10;99.90
4673;DHT22;61885;53.560;9.940;2023-05-07T03:19:02;9.10;99.90
4673;DHT22;61885;53.560;9.940;2023-05-07T03:21:32;9.00;99.90
4673;DHT22;61885;53.560;9.940;2023-05-07T03:24:05;9.10;99.90
4673;DHT22;61885;53.560;9.940;2023-05-07T03:26:35;9.00;99.90
4673;DHT22;61885;53.560;9.940;2023-05-07T03:29:05;9.00;99.90
4673;DHT22;61885;53.560;9.940;2023-05-07T03:31:35;8.90;99.90
4673;DHT22;61885;53.560;9.940;2023-05-07T03:34:04;8.90;99.90
4673;DHT22;61885;53.560;9.940;2023-05-07T03:36:34;9.00;99.90
4673;DHT22;61885;53.560;9.940;2023-05-07T03:39:06;8.90;99.90
4673;DHT22;61885;53.560;9.940;2023-05-07T03:41:37;8.90;99.90
4673;DHT22;61885;53.560;9.940;2023-05-07T03:44:06;8.90;99.90
4673;DHT22;61885;53.560;9.940;2023-05-07T03:46:36;8.90;99.90
4673;DHT22;61885;53.560;9.940;2023-05-07T03:49:07;9.00;99.90
4673;DHT22;61885;53.560;9.940;2023-05-07T03:51:37;8.90;99.90
4673;DHT22;61885;53.560;9.940;2023-05-07T03:54:10;8.90;99.90
4673;DHT22;61885;53.560;9.940;2023-05-07T03:56:40;8.90;99.90
4673;DHT22;61885;53.560;9.940;2023-05-07T03:59:09;9.00;99.90
4673;DHT22;61885;53.560;9.940;2023-05-07T04:01:46;9.00;99.90
4673;DHT22;61885;53.560;9.940;2023-05-07T04:04:16;9.00;99.90
4673;DHT22;61885;53.560;9.940;2023-05-07T04:06:45;9.00;99.90
4673;DHT22;61885;53.560;9.940;2023-05-07T04:09:17;9.00;99.90
4673;DHT22;61885;53.560;9.940;2023-05-07T04:11:47;9.10;99.90
4673;DHT22;61885;53.560;9.940;2023-05-07T04:14:16;9.00;99.90
4673;DHT22;61885;53.560;9.940;2023-05-07T04:16:49;9.10;99.90
4673;DHT22;61885;53.560;9.940;2023-05-07T04:19:28;9.10;99.90
4673;DHT22;61885;53.560;9.940;2023-05-07T04:21:59;9.10;99.90
4673;DHT22;61885;53.560;9.940;2023-05-07T04:24:34;9.10;99.90
4673;DHT22;61885;53.560;9.940;2023-05-07T04:27:06;9.10;99.90
4673;DHT22;61885;53.560;9.940;2023-05-07T04:29:35;9.10;99.90
4673;DHT22;61885;53.560;9.940;2023-05-07T04:32:10;9.10;99.90
4673;DHT22;61885;53.560;9.940;2023-05-07T04:34:40;9.10;99.90
4673;DHT22;61885;53.560;9.940;2023-05-07T04:37:10;9.20;99.90
4673;DHT22;61885;53.560;9.940;2023-05-07T04:39:42;9.20;99.90
4673;DHT22;61885;53.560;9.940;2023-05-07T04:42:14;9.20;99.90
4673;DHT22;61885;53.560;9.940;2023-05-07T04:44:45;9.20;99.90
4673;DHT22;61885;53.560;9.940;2023-05-07T04:47:14;9.20;99.90
4673;DHT22;61885;53.560;9.940;2023-05-07T04:49:46;9.30;99.90
4673;DHT22;61885;53.560;9.940;2023-05-07T04:52:15;9.30;99.90
4673;DHT22;61885;53.560;9.940;2023-05-07T04:54:47;9.30;99.90
4673;DHT22;61885;53.560;9.940;2023-05-07T04:57:17;9.30;99.90
4673;DHT22;61885;53.560;9.940;2023-05-07T04:59:47;9.20;99.90
4673;DHT22;61885;53.560;9.940;2023-05-07T05:02:17;9.30;99.90
4673;DHT22;61885;53.560;9.940;2023-05-07T05:04:46;9.40;99.90
4673;DHT22;61885;53.560;9.940;2023-05-07T05:07:16;9.40;99.90
4673;DHT22;61885;53.560;9.940;2023-05-07T05:09:49;9.40;99.90
4673;DHT22;61885;53.560;9.940;2023-05-07T05:12:19;9.40;99.90
4673;DHT22;61885;53.560;9.940;2023-05-07T05:14:49;9.60;99.90
4673;DHT22;61885;53.560;9.940;2023-05-07T05:17:18;9.40;99.90
4673;DHT22;61885;53.560;9.940;2023-05-07T05:19:50;9.40;99.90
4673;DHT22;61885;53.560;9.940;2023-05-07T05:22:20;9.50;99.90
4673;DHT22;61885;53.560;9.940;2023-05-07T05:24:54;9.40;99.90
4673;DHT22;61885;53.560;9.940;2023-05-07T05:27:24;9.50;99.90
4673;DHT22;61885;53.560;9.940;2023-05-07T05:29:54;9.50;99.90
4673;DHT22;61885;53.560;9.940;2023-05-07T05:32:23;9.50;99.90
4673;DHT22;61885;53.560;9.940;2023-05-07T05:34:54;9.60;99.90
4673;DHT22;61885;53.560;9.940;2023-05-07T05:37:25;9.60;99.90
4673;DHT22;61885;53.560;9.940;2023-05-07T05:39:59;9.50;99.90
4673;DHT22;61885;53.560;9.940;2023-05-07T05:42:28;9.50;99.90
4673;DHT22;61885;53.560;9.940;2023-05-07T05:44:58;9.40;99.90
4673;DHT22;61885;53.560;9.940;2023-05-07T05:47:27;9.40;99.90
4673;DHT22;61885;53.560;9.940;2023-05-07T05:49:59;9.40;99.90
4673;DHT22;61885;53.560;9.940;2023-05-07T05:52:29;9.40;99.90
4673;DHT22;61885;53.560;9.940;2023-05-07T05:55:02;9.40;99.90
4673;DHT22;61885;53.560;9.940;2023-05-07T05:57:40;9.50;99.90
4673;DHT22;61885;53.560;9.940;2023-05-07T06:00:10;9.30;99.90
4673;DHT22;61885;53.560;9.940;2023-05-07T06:02:41;9.40;99.90
4673;DHT22;61885;53.560;9.940;2023-05-07T06:05:14;9.40;99.90
4673;DHT22;61885;53.560;9.940;2023-05-07T06:07:44;9.50;99.90
4673;DHT22;61885;53.560;9.940;2023-05-07T06:10:17;9.60;99.90
4673;DHT22;61885;53.560;9.940;2023-05-07T06:12:47;9.60;99.90
4673;DHT22;61885;53.560;9.940;2023-05-07T06:15:21;9.60;99.90
4673;DHT22;61885;53.560;9.940;2023-05-07T06:17:51;9.70;99.90
4673;DHT22;61885;53.560;9.940;2023-05-07T06:20:24;9.70;99.90
4673;DHT22;61885;53.560;9.940;2023-05-07T06:22:54;9.80;99.90
4673;DHT22;61885;53.560;9.940;2023-05-07T06:25:26;9.80;99.90
4673;DHT22;61885;53.560;9.940;2023-05-07T06:27:58;9.70;99.90
4673;DHT22;61885;53.560;9.940;2023-05-07T06:30:29;9.80;99.90
4673;DHT22;61885;53.560;9.940;2023-05-07T06:32:59;9.90;99.90
4673;DHT22;61885;53.560;9.940;2023-05-07T06:35:33;9.90;99.90
4673;DHT22;61885;53.560;9.940;2023-05-07T06:38:03;10.20;99.90
4673;DHT22;61885;53.560;9.940;2023-05-07T06:40:35;9.70;99.90
4673;DHT22;61885;53.560;9.940;2023-05-07T06:43:04;9.80;99.90
4673;DHT22;61885;53.560;9.940;2023-05-07T06:45:34;9.80;99.90
4673;DHT22;61885;53.560;9.940;2023-05-07T06:48:04;9.80;99.90
4673;DHT22;61885;53.560;9.940;2023-05-07T06:50:36;9.80;99.90
4673;DHT22;61885;53.560;9.940;2023-05-07T06:53:06;9.80;99.90
4673;DHT22;61885;53.560;9.940;2023-05-07T06:55:38;9.90;99.90
4673;DHT22;61885;53.560;9.940;2023-05-07T06:58:08;10.10;99.40
4673;DHT22;61885;53.560;9.940;2023-05-07T07:00:40;10.10;99.00
4673;DHT22;61885;53.560;9.940;2023-05-07T07:03:13;10.10;96.40
4673;DHT22;61885;53.560;9.940;2023-05-07T07:05:56;10.10;95.50
4673;DHT22;61885;53.560;9.940;2023-05-07T07:08:26;10.10;95.80
4673;DHT22;61885;53.560;9.940;2023-05-07T07:10:58;10.30;96.90
4673;DHT22;61885;53.560;9.940;2023-05-07T07:13:30;10.20;94.40
4673;DHT22;61885;53.560;9.940;2023-05-07T07:16:00;10.20;95.40
4673;DHT22;61885;53.560;9.940;2023-05-07T07:18:29;10.10;94.40
4673;DHT22;61885;53.560;9.940;2023-05-07T07:20:59;10.10;93.00
4673;DHT22;61885;53.560;9.940;2023-05-07T07:23:29;10.30;94.50
4673;DHT22;61885;53.560;9.940;2023-05-07T07:26:01;10.40;91.70
4673;DHT22;61885;53.560;9.940;2023-05-07T07:28:32;10.40;90.40
4673;DHT22;61885;53.560;9.940;2023-05-07T07:31:02;10.40;85.20
4673;DHT22;61885;53.560;9.940;2023-05-07T07:33:31;10.50;83.80
4673;DHT22;61885;53.560;9.940;2023-05-07T07:36:01;10.50;83.00
4673;DHT22;61885;53.560;9.940;2023-05-07T07:38:33;10.50;85.70
4673;DHT22;61885;53.560;9.940;2023-05-07T07:41:08;10.70;81.70
4673;DHT22;61885;53.560;9.940;2023-05-07T07:43:39;10.70;79.70
4673;DHT22;61885;53.560;9.940;2023-05-07T07:46:09;10.70;76.10
4673;DHT22;61885;53.560;9.940;2023-05-07T07:48:39;10.70;76.70
4673;DHT22;61885;53.560;9.940;2023-05-07T07:51:10;10.50;77.00
4673;DHT22;61885;53.560;9.940;2023-05-07T07:53:40;10.60;73.90
4673;DHT22;61885;53.560;9.940;2023-05-07T07:56:15;10.70;75.00
4673;DHT22;61885;53.560;9.940;2023-05-07T07:58:48;10.80;76.10
4673;DHT22;61885;53.560;9.940;2023-05-07T08:01:20;11.00;72.10
4673;DHT22;61885;53.560;9.940;2023-05-07T08:03:49;11.00;69.30
4673;DHT22;61885;53.560;9.940;2023-05-07T08:06:22;10.80;68.10
4673;DHT22;61885;53.560;9.940;2023-05-07T08:08:53;10.90;68.70
4673;DHT22;61885;53.560;9.940;2023-05-07T08:11:25;11.00;64.50
4673;DHT22;61885;53.560;9.940;2023-05-07T08:13:57;11.10;62.90
4673;DHT22;61885;53.560;9.940;2023-05-07T08:16:28;11.00;60.40
4673;DHT22;61885;53.560;9.940;2023-05-07T08:18:57;11.00;63.40
4673;DHT22;61885;53.560;9.940;2023-05-07T08:21:29;11.10;64.10
4673;DHT22;61885;53.560;9.940;2023-05-07T08:24:06;11.00;62.40
4673;DHT22;61885;53.560;9.940;2023-05-07T08:26:41;11.10;62.30
4673;DHT22;61885;53.560;9.940;2023-05-07T08:29:11;11.20;61.10
4673;DHT22;61885;53.560;9.940;2023-05-07T08:31:40;11.30;55.30
4673;DHT22;61885;53.560;9.940;2023-05-07T08:34:10;11.20;55.70
4673;DHT22;61885;53.560;9.940;2023-05-07T08:36:41;11.30;48.30
4673;DHT22;61885;53.560;9.940;2023-05-07T08:39:15;11.40;47.60
4673;DHT22;61885;53.560;9.940;2023-05-07T08:41:50;11.30;45.10
4673;DHT22;61885;53.560;9.940;2023-05-07T08:44:22;11.10;44.90
4673;DHT22;61885;53.560;9.940;2023-05-07T08:46:57;11.20;44.80
4673;DHT22;61885;53.560;9.940;2023-05-07T08:49:27;11.30;45.10
4673;DHT22;61885;53.560;9.940;2023-05-07T08:51:58;11.40;44.20
4673;DHT22;61885;53.560;9.940;2023-05-07T08:54:28;11.30;44.70
4673;DHT22;61885;53.560;9.940;2023-05-07T08:57:01;11.30;42.70
4673;DHT22;61885;53.560;9.940;2023-05-07T08:59:30;11.30;45.20
4673;DHT22;61885;53.560;9.940;2023-05-07T09:02:00;11.30;46.80
4673;DHT22;61885;53.560;9.940;2023-05-07T09:04:30;11.40;46.70
4673;DHT22;61885;53.560;9.940;2023-05-07T09:07:00;11.30;46.10
4673;DHT22;61885;53.560;9.940;2023-05-07T09:09:32;11.30;46.10
4673;DHT22;61885;53.560;9.940;2023-05-07T09:12:09;11.50;45.20
4673;DHT22;61885;53.560;9.940;2023-05-07T09:14:39;11.80;38.10
4673;DHT22;61885;53.560;9.940;2023-05-07T09:17:09;11.40;40.70
4673;DHT22;61885;53.560;9.940;2023-05-07T09:19:38;11.50;44.30
4673;DHT22;61885;53.560;9.940;2023-05-07T09:22:08;11.80;38.10
4673;DHT22;61885;53.560;9.940;2023-05-07T09:24:38;12.00;31.80
4673;DHT22;61885;53.560;9.940;2023-05-07T09:27:10;12.10;24.60
4673;DHT22;61885;53.560;9.940;2023-05-07T09:29:40;12.20;23.90
4673;DHT22;61885;53.560;9.940;2023-05-07T09:32:09;12.10;21.70
4673;DHT22;61885;53.560;9.940;2023-05-07T09:34:39;12.00;21.60
4673;DHT22;61885;53.560;9.940;2023-05-07T09:37:12;12.10;12.70
4673;DHT22;61885;53.560;9.940;2023-05-07T09:39:45;11.80;18.20
4673;DHT22;61885;53.560;9.940;2023-05-07T09:42:23;12.00;18.00
4673;DHT22;61885;53.560;9.940;2023-05-07T09:44:55;11.90;18.50
4673;DHT22;61885;53.560;9.940;2023-05-07T09:47:24;12.30;16.00
4673;DHT22;61885;53.560;9.940;2023-05-07T09:49:59;12.30;12.20
4673;DHT22;61885;53.560;9.940;2023-05-07T09:52:33;11.90;14.40
4673;DHT22;61885;53.560;9.940;2023-05-07T09:55:05;12.10;15.40
4673;DHT22;61885;53.560;9.940;2023-05-07T09:57:38;12.10;15.20
4673;DHT22;61885;53.560;9.940;2023-05-07T10:00:10;12.30;12.80
4673;DHT22;61885;53.560;9.940;2023-05-07T10:02:41;12.40;12.60
4673;DHT22;61885;53.560;9.940;2023-05-07T10:05:18;12.50;14.40
4673;DHT22;61885;53.560;9.940;2023-05-07T10:07:48;13.10;7.60
4673;DHT22;61885;53.560;9.940;2023-05-07T10:10:18;13.40;14.40
4673;DHT22;61885;53.560;9.940;2023-05-07T10:12:51;12.60;1.00
4673;DHT22;61885;53.560;9.940;2023-05-07T10:15:21;12.80;1.00
4673;DHT22;61885;53.560;9.940;2023-05-07T10:17:53;13.10;6.60
4673;DHT22;61885;53.560;9.940;2023-05-07T10:20:23;13.20;1.00
4673;DHT22;61885;53.560;9.940;2023-05-07T10:22:56;13.30;1.00
4673;DHT22;61885;53.560;9.940;2023-05-07T10:25:30;13.30;1.00
4673;DHT22;61885;53.560;9.940;2023-05-07T10:28:06;12.90;1.00
4673;DHT22;61885;53.560;9.940;2023-05-07T10:30:53;12.90;1.00
4673;DHT22;61885;53.560;9.940;2023-05-07T10:33:29;12.90;1.00
4673;DHT22;61885;53.560;9.940;2023-05-07T10:36:00;13.00;1.00
4673;DHT22;61885;53.560;9.940;2023-05-07T10:38:31;13.20;1.00
4673;DHT22;61885;53.560;9.940;2023-05-07T10:41:01;13.30;1.00
4673;DHT22;61885;53.560;9.940;2023-05-07T10:43:45;13.60;1.00
4673;DHT22;61885;53.560;9.940;2023-05-07T10:46:17;13.70;1.00
4673;DHT22;61885;53.560;9.940;2023-05-07T10:49:08;13.40;1.00
4673;DHT22;61885;53.560;9.940;2023-05-07T10:51:38;13.10;1.00
4673;DHT22;61885;53.560;9.940;2023-05-07T10:54:23;13.00;1.00
4673;DHT22;61885;53.560;9.940;2023-05-07T10:56:55;13.00;1.00
4673;DHT22;61885;53.560;9.940;2023-05-07T10:59:38;12.80;1.00
4673;DHT22;61885;53.560;9.940;2023-05-07T11:02:11;13.20;1.00
4673;DHT22;61885;53.560;9.940;2023-05-07T11:04:44;13.00;1.00
4673;DHT22;61885;53.560;9.940;2023-05-07T11:07:28;13.30;1.00
4673;DHT22;61885;53.560;9.940;2023-05-07T11:10:05;13.40;1.00
4673;DHT22;61885;53.560;9.940;2023-05-07T11:12:51;13.50;1.00
4673;DHT22;61885;53.560;9.940;2023-05-07T11:15:40;13.50;1.00
4673;DHT22;61885;53.560;9.940;2023-05-07T11:18:16;13.80;1.00
4673;DHT22;61885;53.560;9.940;2023-05-07T11:20:53;13.90;1.00
4673;DHT22;61885;53.560;9.940;2023-05-07T11:26:46;13.50;1.00
4673;DHT22;61885;53.560;9.940;2023-05-07T11:29:17;13.90;1.00
4673;DHT22;61885;53.560;9.940;2023-05-07T11:31:54;13.60;1.00
4673;DHT22;61885;53.560;9.940;2023-05-07T11:34:26;13.90;1.00
4673;DHT22;61885;53.560;9.940;2023-05-07T11:36:56;13.30;1.00
4673;DHT22;61885;53.560;9.940;2023-05-07T11:39:29;13.70;1.00
4673;DHT22;61885;53.560;9.940;2023-05-07T11:41:59;13.70;1.00
4673;DHT22;61885;53.560;9.940;2023-05-07T11:44:42;13.70;1.00
4673;DHT22;61885;53.560;9.940;2023-05-07T11:47:20;13.90;1.00
4673;DHT22;61885;53.560;9.940;2023-05-07T11:49:53;14.10;1.00
4673;DHT22;61885;53.560;9.940;2023-05-07T11:52:23;14.00;1.00
4673;DHT22;61885;53.560;9.940;2023-05-07T11:54:55;14.00;1.00
4673;DHT22;61885;53.560;9.940;2023-05-07T11:57:27;14.30;1.00
4673;DHT22;61885;53.560;9.940;2023-05-07T11:59:58;14.80;1.00
4673;DHT22;61885;53.560;9.940;2023-05-07T12:02:31;14.60;1.00
4673;DHT22;61885;53.560;9.940;2023-05-07T12:05:04;14.60;1.00
4673;DHT22;61885;53.560;9.940;2023-05-07T12:07:34;14.60;1.00
4673;DHT22;61885;53.560;9.940;2023-05-07T12:10:05;14.70;1.00
4673;DHT22;61885;53.560;9.940;2023-05-07T12:12:38;14.30;1.00
4673;DHT22;61885;53.560;9.940;2023-05-07T12:15:09;14.90;1.00
4673;DHT22;61885;53.560;9.940;2023-05-07T12:17:41;15.00;1.00
4673;DHT22;61885;53.560;9.940;2023-05-07T12:20:11;14.80;1.00
4673;DHT22;61885;53.560;9.940;2023-05-07T12:22:41;15.30;1.00
4673;DHT22;61885;53.560;9.940;2023-05-07T12:25:11;15.00;1.00
4673;DHT22;61885;53.560;9.940;2023-05-07T12:27:51;15.30;1.00
4673;DHT22;61885;53.560;9.940;2023-05-07T12:30:21;15.40;1.00
4673;DHT22;61885;53.560;9.940;2023-05-07T12:32:55;15.00;1.00
4673;DHT22;61885;53.560;9.940;2023-05-07T12:35:32;15.20;1.00
4673;DHT22;61885;53.560;9.940;2023-05-07T12:38:09;15.80;1.00
4673;DHT22;61885;53.560;9.940;2023-05-07T12:40:41;15.90;1.00
4673;DHT22;61885;53.560;9.940;2023-05-07T12:43:17;15.80;1.00
4673;DHT22;61885;53.560;9.940;2023-05-07T12:45:50;16.40;1.00
4673;DHT22;61885;53.560;9.940;2023-05-07T12:48:23;16.80;1.00
4673;DHT22;61885;53.560;9.940;2023-05-07T12:50:54;16.50;1.00
4673;DHT22;61885;53.560;9.940;2023-05-07T12:53:27;16.60;1.00
4673;DHT22;61885;53.560;9.940;2023-05-07T12:55:59;17.20;1.00
4673;DHT22;61885;53.560;9.940;2023-05-07T12:58:30;17.30;1.00
4673;DHT22;61885;53.560;9.940;2023-05-07T13:01:05;16.80;1.00
4673;DHT22;61885;53.560;9.940;2023-05-07T13:03:38;16.50;1.00
4673;DHT22;61885;53.560;9.940;2023-05-07T13:06:09;17.10;1.00
4673;DHT22;61885;53.560;9.940;2023-05-07T13:08:40;16.90;1.00
4673;DHT22;61885;53.560;9.940;2023-05-07T13:11:12;17.10;1.00
4673;DHT22;61885;53.560;9.940;2023-05-07T13:13:45;17.30;1.00
4673;DHT22;61885;53.560;9.940;2023-05-07T13:16:16;17.20;1.00
4673;DHT22;61885;53.560;9.940;2023-05-07T13:18:48;16.70;1.00
4673;DHT22;61885;53.560;9.940;2023-05-07T13:21:18;16.50;1.00
4673;DHT22;61885;53.560;9.940;2023-05-07T13:23:48;16.70;1.00
4673;DHT22;61885;53.560;9.940;2023-05-07T13:26:17;16.40;1.00
4673;DHT22;61885;53.560;9.940;2023-05-07T13:28:50;16.60;1.00
4673;DHT22;61885;53.560;9.940;2023-05-07T13:31:22;17.00;1.00
4673;DHT22;61885;53.560;9.940;2023-05-07T13:33:57;17.10;1.00
4673;DHT22;61885;53.560;9.940;2023-05-07T13:36:28;17.30;1.00
4673;DHT22;61885;53.560;9.940;2023-05-07T13:38:59;16.90;1.00
4673;DHT22;61885;53.560;9.940;2023-05-07T13:41:29;17.60;1.00
4673;DHT22;61885;53.560;9.940;2023-05-07T13:43:59;17.70;1.00
4673;DHT22;61885;53.560;9.940;2023-05-07T13:46:29;17.60;1.00
4673;DHT22;61885;53.560;9.940;2023-05-07T13:49:01;17.30;1.00
4673;DHT22;61885;53.560;9.940;2023-05-07T13:51:32;17.20;1.00
4673;DHT22;61885;53.560;9.940;2023-05-07T13:54:04;17.10;1.00
4673;DHT22;61885;53.560;9.940;2023-05-07T13:56:36;17.80;1.00
4673;DHT22;61885;53.560;9.940;2023-05-07T13:59:08;17.20;1.00
4673;DHT22;61885;53.560;9.940;2023-05-07T14:01:40;17.20;1.00
4673;DHT22;61885;53.560;9.940;2023-05-07T14:04:12;17.20;1.00
4673;DHT22;61885;53.560;9.940;2023-05-07T14:06:42;17.00;1.00
4673;DHT22;61885;53.560;9.940;2023-05-07T14:09:12;17.30;1.00
4673;DHT22;61885;53.560;9.940;2023-05-07T14:11:45;17.30;1.00
4673;DHT22;61885;53.560;9.940;2023-05-07T14:14:17;17.00;1.00
4673;DHT22;61885;53.560;9.940;2023-05-07T14:16:49;18.10;1.00
4673;DHT22;61885;53.560;9.940;2023-05-07T14:19:21;18.10;1.00
4673;DHT22;61885;53.560;9.940;2023-05-07T14:21:51;18.50;1.00
4673;DHT22;61885;53.560;9.940;2023-05-07T14:24:21;17.80;1.00
4673;DHT22;61885;53.560;9.940;2023-05-07T14:26:51;17.90;1.00
4673;DHT22;61885;53.560;9.940;2023-05-07T14:29:21;18.60;1.00
4673;DHT22;61885;53.560;9.940;2023-05-07T14:31:50;18.80;1.00
4673;DHT22;61885;53.560;9.940;2023-05-07T14:34:22;19.20;1.00
4673;DHT22;61885;53.560;9.940;2023-05-07T14:36:54;19.30;1.00
4673;DHT22;61885;53.560;9.940;2023-05-07T14:39:25;19.70;1.00
4673;DHT22;61885;53.560;9.940;2023-05-07T14:41:55;20.70;1.00
4673;DHT22;61885;53.560;9.940;2023-05-07T14:44:25;20.90;1.00
4673;DHT22;61885;53.560;9.940;2023-05-07T14:46:55;20.40;1.00
4673;DHT22;61885;53.560;9.940;2023-05-07T14:49:27;21.20;1.00
4673;DHT22;61885;53.560;9.940;2023-05-07T14:51:57;20.80;1.00
4673;DHT22;61885;53.560;9.940;2023-05-07T14:54:28;20.80;1.00
4673;DHT22;61885;53.560;9.940;2023-05-07T14:57:00;22.30;1.00
4673;DHT22;61885;53.560;9.940;2023-05-07T14:59:29;22.20;1.00
4673;DHT22;61885;53.560;9.940;2023-05-07T15:02:01;22.20;1.00
4673;DHT22;61885;53.560;9.940;2023-05-07T15:04:36;23.60;1.00
4673;DHT22;61885;53.560;9.940;2023-05-07T15:07:12;22.30;1.00
4673;DHT22;61885;53.560;9.940;2023-05-07T15:09:42;20.90;1.00
4673;DHT22;61885;53.560;9.940;2023-05-07T15:12:12;20.60;1.00
4673;DHT22;61885;53.560;9.940;2023-05-07T15:14:42;19.30;1.00
4673;DHT22;61885;53.560;9.940;2023-05-07T15:17:16;18.50;1.00
4673;DHT22;61885;53.560;9.940;2023-05-07T15:19:50;18.40;1.00
4673;DHT22;61885;53.560;9.940;2023-05-07T15:22:21;18.80;1.00
4673;DHT22;61885;53.560;9.940;2023-05-07T15:24:51;18.70;1.00
4673;DHT22;61885;53.560;9.940;2023-05-07T15:27:22;18.50;1.00
4673;DHT22;61885;53.560;9.940;2023-05-07T15:29:51;18.40;1.00
4673;DHT22;61885;53.560;9.940;2023-05-07T15:32:21;18.00;1.00
4673;DHT22;61885;53.560;9.940;2023-05-07T15:34:53;18.00;1.00
4673;DHT22;61885;53.560;9.940;2023-05-07T15:37:23;17.90;1.00
4673;DHT22;61885;53.560;9.940;2023-05-07T15:39:53;17.90;1.00
4673;DHT22;61885;53.560;9.940;2023-05-07T15:42:22;18.10;1.00
4673;DHT22;61885;53.560;9.940;2023-05-07T15:44:52;17.50;1.00
4673;DHT22;61885;53.560;9.940;2023-05-07T15:47:23;17.00;1.00
4673;DHT22;61885;53.560;9.940;2023-05-07T15:49:56;16.90;1.00
4673;DHT22;61885;53.560;9.940;2023-05-07T15:52:28;17.20;1.00
4673;DHT22;61885;53.560;9.940;2023-05-07T15:55:00;17.50;1.00
4673;DHT22;61885;53.560;9.940;2023-05-07T15:57:29;17.00;1.00
4673;DHT22;61885;53.560;9.940;2023-05-07T16:00:00;16.70;1.00
4673;DHT22;61885;53.560;9.940;2023-05-07T16:02:34;16.90;1.00
4673;DHT22;61885;53.560;9.940;2023-05-07T16:05:11;17.00;1.00
4673;DHT22;61885;53.560;9.940;2023-05-07T16:07:41;17.00;1.00
4673;DHT22;61885;53.560;9.940;2023-05-07T16:10:11;17.00;1.00
4673;DHT22;61885;53.560;9.940;2023-05-07T16:12:41;17.10;1.00
4673;DHT22;61885;53.560;9.940;2023-05-07T16:15:14;17.00;1.00
4673;DHT22;61885;53.560;9.940;2023-05-07T16:17:47;17.00;1.00
4673;DHT22;61885;53.560;9.940;2023-05-07T16:20:27;17.00;1.00
4673;DHT22;61885;53.560;9.940;2023-05-07T16:22:58;17.00;1.00
4673;DHT22;61885;53.560;9.940;2023-05-07T16:25:29;16.60;1.00
4673;DHT22;61885;53.560;9.940;2023-05-07T16:27:59;16.60;1.00
4673;DHT22;61885;53.560;9.940;2023-05-07T16:30:34;16.90;1.00